Time;durP1;ratioP1;P1;durP2;ratioP2;P2;SDS_P1;SDS_P2;PMS_P1;PMS_P2;Temp;Humidity;BMP_temperature;BMP_pressure;BME280_temperature;BME280_humidity;BME280_pressure;Samples;Min_cycle;Max_cycle;Signal;HPM_P1;HPM_P2
2022/10/30 00:01:02;;;;;;;9.18;3.78;;;;;;;17.81;58.22;100407.63;5073435;28;20071;-63
2022/10/30 00:03:42;;;;;;;10.57;3.40;;;;;;;17.90;56.89;100398.19;5073114;28;20075;-64
2022/10/30 00:06:12;;;;;;;8.38;3.97;;;;;;;17.91;57.42;100397.00;5063330;28;20058;-62
2022/10/30 00:09:05;;;;;;;7.25;3.85;;;;;;;17.94;57.88;100399.91;5072371;28;20051;-62
2022/10/30 00:17:25;;;;;;;10.52;3.72;;;;;;;18.05;56.42;100412.25;5049919;28;20053;-62
2022/10/30 00:20:00;;;;;;;9.93;4.05;;;;;;;18.07;56.88;100402.63;5049788;28;20053;-62
2022/10/30 00:22:46;;;;;;;8.45;4.43;;;;;;;18.08;57.20;100395.78;5057750;28;20044;-62
2022/10/30 00:25:17;;;;;;;8.30;4.30;;;;;;;18.08;57.65;100398.59;5072415;28;20053;-63
2022/10/30 00:27:49;;;;;;;7.85;3.85;;;;;;;18.08;57.51;100404.25;5049149;28;20498;-62
2022/10/30 00:30:23;;;;;;;7.47;3.58;;;;;;;18.06;57.57;100407.44;5013090;28;20486;-63
2022/10/30 00:33:20;;;;;;;10.35;4.05;;;;;;;18.07;57.64;100411.88;5013104;28;20068;-62
2022/10/30 00:35:50;;;;;;;10.98;3.88;;;;;;;18.08;57.49;100409.88;5004845;28;20062;-62
2022/10/30 00:38:24;;;;;;;6.22;4.03;;;;;;;18.06;57.94;100410.28;5028436;28;20053;-62
2022/10/30 00:40:58;;;;;;;10.30;4.32;;;;;;;17.99;58.39;100401.63;5033248;28;20041;-62
2022/10/30 00:43:40;;;;;;;10.60;4.18;;;;;;;17.96;57.99;100414.47;5024118;28;20402;-62
2022/10/30 00:46:26;;;;;;;7.13;4.07;;;;;;;17.94;58.83;100413.19;5015754;28;20046;-62
2022/10/30 00:49:01;;;;;;;8.55;3.83;;;;;;;17.92;58.33;100407.91;5024006;28;20068;-64
2022/10/30 00:54:16;;;;;;;7.95;4.00;;;;;;;17.78;58.84;100408.34;5016503;28;20054;-64
2022/10/30 00:56:55;;;;;;;;;;;;;;;17.72;59.32;100409.00;5010022;28;20218;-62
2022/10/30 01:00:13;;;;;;;8.95;4.28;;;;;;;17.65;59.16;100395.56;5019582;28;19925;-62
2022/10/30 01:03:17;;;;;;;6.32;4.15;;;;;;;17.60;59.13;100398.66;5016125;28;20045;-62
2022/10/30 01:06:23;;;;;;;8.10;4.00;;;;;;;17.56;59.30;100390.13;5032197;28;20061;-62
2022/10/30 01:09:03;;;;;;;8.75;4.00;;;;;;;17.50;59.40;100385.13;5025910;28;20046;-62
2022/10/30 01:11:34;;;;;;;9.30;3.72;;;;;;;17.47;59.57;100381.03;5012261;28;20522;-62
2022/10/30 01:14:08;;;;;;;8.10;3.92;;;;;;;17.45;59.52;100386.22;5023757;28;20057;-62
2022/10/30 01:17:06;;;;;;;7.97;4.47;;;;;;;17.33;60.42;100389.94;5031597;28;20054;-62
2022/10/30 01:19:49;;;;;;;7.15;3.70;;;;;;;17.29;60.24;100380.56;5016668;28;20414;-62
2022/10/30 01:22:46;;;;;;;9.43;4.40;;;;;;;17.29;59.98;100388.22;5012346;28;20050;-62
2022/10/30 01:25:39;;;;;;;8.68;4.32;;;;;;;17.22;59.94;100392.47;5012342;28;20061;-62
2022/10/30 01:28:37;;;;;;;9.35;4.03;;;;;;;17.16;60.19;100388.28;5019919;28;20068;-65
2022/10/30 01:31:27;;;;;;;8.23;4.03;;;;;;;17.10;60.89;100386.91;5051973;28;20045;-64
2022/10/30 01:34:17;;;;;;;10.07;4.88;;;;;;;17.05;61.18;100398.44;5018374;28;20519;-63
2022/10/30 01:36:52;;;;;;;8.13;3.88;;;;;;;16.99;60.98;100400.69;5051784;28;20060;-62
2022/10/30 01:39:27;;;;;;;7.22;3.75;;;;;;;16.96;60.91;100406.22;5052314;28;20060;-64
2022/10/30 01:42:14;;;;;;;10.77;5.13;;;;;;;16.90;61.32;100402.84;5052142;28;20063;-64
2022/10/30 01:44:42;;;;;;;7.05;3.83;;;;;;;16.91;61.43;100404.47;5051761;28;20056;-62
2022/10/30 01:47:47;;;;;;;6.93;3.78;;;;;;;16.86;61.60;100390.66;5051813;28;20054;-63
2022/10/30 01:50:51;;;;;;;7.93;4.38;;;;;;;16.79;61.66;100407.31;5049543;28;20053;-63
2022/10/30 01:53:44;;;;;;;7.88;4.40;;;;;;;16.78;61.52;100405.69;5027278;28;20059;-63
2022/10/30 02:02:18;;;;;;;8.05;4.05;;;;;;;16.78;61.92;100405.69;5006473;28;20057;-63
2022/10/30 02:04:52;;;;;;;7.70;4.00;;;;;;;16.75;62.18;100403.59;5054798;28;20072;-62
2022/10/30 02:07:23;;;;;;;10.48;4.25;;;;;;;16.71;62.69;100409.09;5062331;28;20052;-63
2022/10/30 02:12:38;;;;;;;8.32;4.28;;;;;;;16.60;63.20;100411.59;5047929;28;20064;-62
2022/10/30 02:18:20;;;;;;;10.07;4.60;;;;;;;16.53;63.14;100405.78;5068320;28;20048;-62
2022/10/30 02:20:50;;;;;;;9.77;4.13;;;;;;;16.52;63.43;100398.50;5072207;28;20059;-62
2022/10/30 02:23:36;;;;;;;10.70;4.35;;;;;;;16.47;63.53;100414.81;5060660;28;20413;-63
2022/10/30 02:26:08;;;;;;;9.80;4.38;;;;;;;16.46;63.58;100399.13;5054726;28;20449;-62
2022/10/30 02:28:42;;;;;;;8.63;4.63;;;;;;;16.47;63.06;100412.00;5054394;28;20524;-64
2022/10/30 02:31:15;;;;;;;12.48;4.55;;;;;;;16.46;63.53;100399.13;5063033;28;20059;-62
2022/10/30 02:33:46;;;;;;;11.27;5.00;;;;;;;16.47;63.44;100412.81;5065799;28;20501;-63
2022/10/30 02:36:52;;;;;;;8.15;4.55;;;;;;;16.46;63.79;100422.41;5068564;28;20053;-62
2022/10/30 02:39:25;;;;;;;6.95;4.60;;;;;;;16.42;63.84;100413.06;5042240;28;20049;-64
2022/10/30 02:42:08;;;;;;;7.45;4.22;;;;;;;16.39;63.15;100408.97;5054519;28;20048;-65
2022/10/30 02:44:46;;;;;;;11.80;4.80;;;;;;;16.33;63.45;100418.00;5055811;28;20067;-64
2022/10/30 02:47:17;;;;;;;11.73;4.78;;;;;;;16.26;63.93;100424.25;5071376;28;20055;-62
2022/10/30 02:50:00;;;;;;;12.95;5.35;;;;;;;16.19;63.93;100419.22;5075232;28;20492;-62
2022/10/30 02:52:34;;;;;;;10.80;4.63;;;;;;;16.13;63.98;100426.25;5074730;28;20059;-62
2022/10/30 02:55:34;;;;;;;8.02;4.28;;;;;;;16.02;64.38;100409.06;5074613;28;20049;-64
2022/10/30 02:58:14;;;;;;;;;;;;;;;15.95;65.37;100414.44;5066131;28;20056;-64
2022/10/30 03:00:42;;;;;;;8.82;4.50;;;;;;;15.88;64.29;100413.41;5072223;28;19920;-62
2022/10/30 03:03:12;;;;;;;9.32;4.68;;;;;;;15.83;65.04;100401.22;5074179;28;20059;-64
2022/10/30 03:05:41;;;;;;;9.18;4.30;;;;;;;15.78;65.51;100409.88;5073549;28;20059;-62
2022/10/30 03:08:19;;;;;;;7.60;4.28;;;;;;;15.75;65.60;100407.78;5073689;28;20045;-63
2022/10/30 03:14:14;;;;;;;8.90;4.53;;;;;;;15.65;65.53;100419.44;4992556;28;20069;-64
2022/10/30 03:16:52;;;;;;;8.88;4.72;;;;;;;15.55;65.98;100406.69;5051743;28;20041;-62
2022/10/30 03:19:23;;;;;;;10.38;4.57;;;;;;;15.43;65.96;100399.09;5053900;28;20492;-62
2022/10/30 03:21:53;;;;;;;7.72;4.38;;;;;;;15.29;66.77;100395.78;5053986;28;20048;-62
2022/10/30 03:24:28;;;;;;;12.57;4.70;;;;;;;15.29;67.10;100404.22;5065707;28;20044;-62
2022/10/30 03:26:59;;;;;;;9.93;4.35;;;;;;;15.27;66.84;100406.53;5073528;28;20052;-62
2022/10/30 03:29:28;;;;;;;6.80;4.72;;;;;;;15.23;67.17;100412.03;5069194;28;20424;-62
2022/10/30 03:31:55;;;;;;;8.70;4.43;;;;;;;15.20;66.84;100418.34;5073284;28;20397;-62
2022/10/30 03:34:25;;;;;;;8.02;4.55;;;;;;;15.18;67.82;100411.41;5073072;28;20057;-62
2022/10/30 03:36:52;;;;;;;10.30;5.00;;;;;;;15.13;68.44;100412.47;5073171;28;20044;-62
2022/10/30 03:39:22;;;;;;;8.32;4.75;;;;;;;15.11;67.34;100419.59;5073412;28;20053;-62
2022/10/30 03:41:49;;;;;;;;;;;;;;;15.07;67.30;100401.81;5073355;28;20048;-62
2022/10/30 03:44:16;;;;;;;8.68;4.53;;;;;;;14.99;68.17;100412.78;5058618;28;19920;-62
2022/10/30 03:46:44;;;;;;;11.25;4.60;;;;;;;14.96;67.53;100413.47;5053158;28;20405;-62
2022/10/30 03:49:12;;;;;;;11.85;4.63;;;;;;;14.92;68.14;100420.13;5052902;28;20065;-62
2022/10/30 03:51:39;;;;;;;8.43;4.38;;;;;;;14.87;67.98;100415.56;5053222;28;20049;-62
2022/10/30 03:54:06;;;;;;;8.25;4.68;;;;;;;14.78;67.14;100409.19;5072863;28;20059;-62
2022/10/30 03:56:33;;;;;;;11.35;4.97;;;;;;;14.76;68.35;100414.31;5071076;28;20397;-62
2022/10/30 03:59:01;;;;;;;10.32;4.55;;;;;;;14.72;67.89;100425.44;5070049;28;20056;-62
2022/10/30 04:01:28;;;;;;;8.90;4.53;;;;;;;14.68;67.77;100434.84;5057429;28;20044;-62
2022/10/30 04:03:57;;;;;;;9.38;4.40;;;;;;;14.68;68.89;100434.84;5062442;28;20064;-62
2022/10/30 04:06:29;;;;;;;7.68;4.25;;;;;;;14.65;68.69;100430.75;5055908;28;20049;-62
2022/10/30 04:08:57;;;;;;;11.82;5.85;;;;;;;14.67;68.95;100431.22;5072279;28;20075;-62
2022/10/30 04:11:24;;;;;;;11.32;4.60;;;;;;;14.65;68.83;100430.75;5070926;28;20044;-62
2022/10/30 04:13:51;;;;;;;10.70;4.30;;;;;;;14.61;68.09;100429.78;5052832;28;20418;-62
2022/10/30 04:16:19;;;;;;;8.60;4.47;;;;;;;14.56;69.08;100427.22;5052669;28;20079;-62
2022/10/30 04:18:46;;;;;;;9.35;5.00;;;;;;;14.54;68.08;100430.31;5051841;28;20529;-62
2022/10/30 04:21:14;;;;;;;10.73;5.15;;;;;;;14.51;69.23;100424.56;5067181;28;20056;-62
2022/10/30 04:23:44;;;;;;;9.70;4.53;;;;;;;14.48;67.72;100430.88;5068098;28;20476;-62
2022/10/30 04:26:12;;;;;;;10.98;4.80;;;;;;;14.43;69.01;100434.69;5072294;28;20053;-62
2022/10/30 04:28:39;;;;;;;11.10;5.40;;;;;;;14.38;69.13;100426.47;5070444;28;20060;-62
2022/10/30 04:31:07;;;;;;;7.97;4.82;;;;;;;14.33;69.37;100432.31;5072359;28;20440;-62
2022/10/30 04:33:34;;;;;;;10.52;5.38;;;;;;;14.27;69.07;100430.88;5071990;28;20049;-62
2022/10/30 04:36:02;;;;;;;11.02;4.95;;;;;;;14.25;68.62;100424.78;5072237;28;20052;-62
2022/10/30 04:38:30;;;;;;;9.18;5.05;;;;;;;14.24;69.75;100445.53;5072306;28;20059;-62
2022/10/30 04:40:57;;;;;;;9.10;5.50;;;;;;;14.19;68.84;100447.41;5070640;28;20053;-62
2022/10/30 04:43:25;;;;;;;7.78;5.28;;;;;;;14.17;69.67;100449.72;5058907;28;20059;-62
2022/10/30 04:45:52;;;;;;;8.68;5.50;;;;;;;14.16;69.60;100448.06;5071622;28;20059;-62
2022/10/30 04:48:19;;;;;;;11.55;5.35;;;;;;;14.15;68.46;100454.00;5071987;28;20052;-62
2022/10/30 04:50:47;;;;;;;10.02;5.13;;;;;;;14.14;69.39;100455.16;5071771;28;20056;-62
2022/10/30 04:53:16;;;;;;;11.73;5.55;;;;;;;14.11;68.99;100450.22;5071909;28;20048;-64
2022/10/30 04:55:45;;;;;;;9.27;4.88;;;;;;;14.07;69.15;100452.06;5071688;28;20048;-62
2022/10/30 04:58:13;;;;;;;8.00;4.37;;;;;;;14.04;69.65;100447.16;5069247;28;20409;-62
2022/10/30 05:00:40;;;;;;;8.05;4.70;;;;;;;14.00;70.33;100444.19;5071666;28;20505;-62
2022/10/30 05:03:07;;;;;;;11.60;5.05;;;;;;;14.00;69.10;100441.41;5071434;28;20052;-62
2022/10/30 05:05:34;;;;;;;8.63;5.38;;;;;;;13.98;69.36;100446.53;5071683;28;20053;-62
2022/10/30 05:08:02;;;;;;;10.00;5.68;;;;;;;13.95;70.38;100441.59;5071237;28;20072;-62
2022/10/30 05:10:29;;;;;;;9.90;5.10;;;;;;;13.92;69.61;100440.31;5071940;28;20400;-62
2022/10/30 05:12:58;;;;;;;12.45;5.15;;;;;;;13.86;70.56;100441.66;5065275;28;20045;-62
2022/10/30 05:15:26;;;;;;;10.55;5.15;;;;;;;13.84;70.27;100440.34;5051931;28;20053;-62
2022/10/30 05:17:53;;;;;;;10.90;5.32;;;;;;;13.84;70.76;100446.78;5051692;28;20049;-62
2022/10/30 05:20:21;;;;;;;14.75;5.07;;;;;;;13.80;69.83;100434.63;5051566;28;20485;-62
2022/10/30 05:22:54;;;;;;;8.63;5.07;;;;;;;13.78;70.94;100437.75;5051402;28;20060;-61
2022/10/30 05:25:22;;;;;;;8.73;5.38;;;;;;;13.80;69.95;100443.81;5051702;28;20462;-63
2022/10/30 05:27:49;;;;;;;10.45;4.72;;;;;;;13.75;70.02;100437.59;5051092;28;20053;-63
2022/10/30 05:30:21;;;;;;;9.70;5.18;;;;;;;13.74;70.35;100439.56;5054515;28;20057;-62
2022/10/30 05:32:48;;;;;;;11.80;5.07;;;;;;;13.70;70.13;100435.81;5055641;28;20576;-62
2022/10/30 05:35:15;;;;;;;9.75;5.10;;;;;;;13.68;70.61;100435.31;5055059;28;20053;-62
2022/10/30 05:37:43;;;;;;;8.95;4.90;;;;;;;13.69;70.74;100428.56;5054873;28;20057;-61
2022/10/30 05:40:11;;;;;;;11.95;5.30;;;;;;;13.61;70.38;100426.63;5055380;28;20057;-64
2022/10/30 05:42:38;;;;;;;8.40;4.40;;;;;;;13.61;69.90;100440.63;5055358;28;20060;-62
2022/10/30 05:45:07;;;;;;;8.60;5.05;;;;;;;13.57;69.75;100426.47;5055120;28;20072;-62
2022/10/30 05:47:35;;;;;;;10.20;4.78;;;;;;;13.52;70.02;100434.22;5059010;28;20049;-62
2022/10/30 05:50:02;;;;;;;10.30;5.30;;;;;;;13.46;71.14;100433.63;5070364;28;20057;-62
2022/10/30 05:52:30;;;;;;;8.23;5.07;;;;;;;13.42;70.88;100434.59;5068117;28;20405;-62
2022/10/30 05:54:57;;;;;;;9.82;5.75;;;;;;;13.44;71.15;100435.06;5072935;28;20048;-62
2022/10/30 05:57:24;;;;;;;8.52;4.57;;;;;;;13.43;70.47;100430.66;5056751;28;20504;-62
2022/10/30 05:59:51;;;;;;;9.32;5.45;;;;;;;13.41;70.41;100425.38;5054700;28;20053;-62
2022/10/30 06:02:19;;;;;;;11.70;5.80;;;;;;;13.37;70.49;100416.00;5054964;28;20060;-62
2022/10/30 06:04:48;;;;;;;8.38;5.30;;;;;;;13.32;70.83;100414.22;5054554;28;20049;-64
2022/10/30 06:07:15;;;;;;;11.98;5.63;;;;;;;13.33;70.74;100420.63;5054456;28;20433;-62
2022/10/30 06:09:42;;;;;;;7.60;4.88;;;;;;;13.25;71.12;100425.09;5054025;28;20053;-57
2022/10/30 06:12:09;;;;;;;9.52;5.47;;;;;;;13.27;71.82;100428.38;5066911;28;20063;-62
2022/10/30 06:14:37;;;;;;;10.85;5.93;;;;;;;13.27;71.38;100430.34;5074562;28;20481;-62
2022/10/30 06:17:04;;;;;;;10.38;5.75;;;;;;;13.30;71.00;100410.13;5074138;28;20075;-62
2022/10/30 06:19:31;;;;;;;11.70;5.50;;;;;;;13.27;71.08;100417.19;5059757;28;20052;-62
2022/10/30 06:22:00;;;;;;;12.32;5.30;;;;;;;13.26;71.71;100412.72;5071913;28;20041;-62
2022/10/30 06:24:27;;;;;;;9.10;5.03;;;;;;;13.29;71.68;100412.13;5073272;28;20056;-61
2022/10/30 06:26:54;;;;;;;9.57;5.30;;;;;;;13.35;71.41;100404.34;5071286;28;20063;-60
2022/10/30 06:29:21;;;;;;;12.25;5.50;;;;;;;13.40;72.45;100412.56;5064106;28;20429;-62
2022/10/30 06:31:49;;;;;;;9.27;5.15;;;;;;;13.44;71.72;100410.75;5060125;28;20055;-62
2022/10/30 06:34:16;;;;;;;8.95;4.60;;;;;;;13.49;72.03;100413.34;5068993;28;20517;-62
2022/10/30 06:36:43;;;;;;;8.75;4.80;;;;;;;13.49;71.19;100418.13;5056981;28;20048;-62
2022/10/30 06:39:12;;;;;;;9.35;4.93;;;;;;;13.56;70.73;100418.41;5062910;28;20063;-62
2022/10/30 06:41:39;;;;;;;7.60;4.80;;;;;;;13.60;70.74;100416.56;5060555;28;20064;-62
2022/10/30 06:44:06;;;;;;;8.98;4.82;;;;;;;13.68;70.78;100415.72;5066007;28;20048;-62
2022/10/30 06:46:33;;;;;;;8.02;4.95;;;;;;;13.75;70.20;100418.00;5064208;28;20072;-62
2022/10/30 06:49:01;;;;;;;12.07;5.00;;;;;;;13.79;70.15;100414.16;5056859;28;20404;-62
2022/10/30 06:51:28;;;;;;;7.57;4.47;;;;;;;13.84;69.77;100415.13;5062848;28;20057;-62
2022/10/30 06:53:56;;;;;;;11.80;6.38;;;;;;;13.94;69.07;100423.16;5073375;28;20064;-62
2022/10/30 06:56:24;;;;;;;9.68;4.82;;;;;;;13.94;69.20;100418.41;5064872;28;20059;-62
2022/10/30 06:58:51;;;;;;;8.77;5.13;;;;;;;13.95;68.50;100413.59;5071126;28;20055;-62
2022/10/30 07:01:19;;;;;;;6.47;4.22;;;;;;;14.00;68.05;100424.59;5074299;28;20063;-62
2022/10/30 07:03:46;;;;;;;11.60;5.05;;;;;;;14.02;68.93;100411.09;5073346;28;20503;-62
2022/10/30 07:06:15;;;;;;;13.02;5.38;;;;;;;14.06;68.01;100417.66;5074019;28;20052;-62
2022/10/30 07:08:43;;;;;;;7.45;4.72;;;;;;;14.18;68.65;100420.53;5073957;28;20079;-62
2022/10/30 07:11:10;;;;;;;10.50;5.55;;;;;;;14.35;67.86;100432.78;5073630;28;20057;-62
2022/10/30 07:13:38;;;;;;;9.57;4.70;;;;;;;14.43;68.07;100434.69;5070278;28;20052;-62
2022/10/30 07:16:06;;;;;;;10.48;4.68;;;;;;;14.74;66.42;100436.28;5061293;28;20057;-62
2022/10/30 07:18:33;;;;;;;11.23;4.90;;;;;;;15.75;64.38;100433.06;5058922;28;20477;-62
2022/10/30 07:21:01;;;;;;;5.82;4.05;;;;;;;16.49;62.52;100449.03;5058957;28;20052;-62
2022/10/30 07:23:28;;;;;;;7.47;4.50;;;;;;;16.93;60.40;100449.97;5073244;28;20045;-62
2022/10/30 07:25:59;;;;;;;7.68;4.05;;;;;;;17.11;59.58;100449.63;5067332;28;20049;-62
2022/10/30 07:28:26;;;;;;;6.55;3.95;;;;;;;17.54;57.69;100445.19;5063014;28;20045;-62
2022/10/30 07:30:55;;;;;;;10.38;4.65;;;;;;;17.72;56.32;100454.88;5067953;28;20052;-62
2022/10/30 07:33:22;;;;;;;10.68;4.82;;;;;;;17.53;56.82;100458.41;5062557;28;20048;-62
2022/10/30 07:35:49;;;;;;;8.40;4.65;;;;;;;17.98;56.32;100462.81;5070738;28;20413;-61
2022/10/30 07:38:16;;;;;;;8.57;4.30;;;;;;;18.25;55.92;100463.88;5064417;28;20052;-61
2022/10/30 07:40:44;;;;;;;9.68;4.45;;;;;;;18.93;53.94;100461.75;5072762;28;20053;-61
2022/10/30 07:43:12;;;;;;;7.60;4.25;;;;;;;19.27;53.51;100460.00;5072358;28;20048;-61
2022/10/30 07:45:39;;;;;;;10.35;4.78;;;;;;;20.20;51.68;100454.34;5064122;28;20048;-61
2022/10/30 07:48:08;;;;;;;8.57;4.13;;;;;;;21.23;49.21;100448.44;5054690;28;20049;-62
2022/10/30 07:50:35;;;;;;;9.23;4.70;;;;;;;22.35;46.99;100438.97;5066862;28;20414;-60
2022/10/30 07:53:03;;;;;;;8.27;4.20;;;;;;;23.53;44.25;100445.09;5066958;28;20049;-61
2022/10/30 07:55:30;;;;;;;10.80;4.60;;;;;;;24.55;42.04;100432.47;5060433;28;20056;-61
2022/10/30 07:57:57;;;;;;;6.85;4.03;;;;;;;25.64;39.97;100438.06;5054615;28;20057;-62
2022/10/30 08:00:25;;;;;;;8.35;4.15;;;;;;;26.59;38.29;100438.88;5066019;28;20052;-62
2022/10/30 08:02:56;;;;;;;5.05;3.28;;;;;;;27.66;36.72;100437.44;5063001;28;20373;-62
2022/10/30 08:05:25;;;;;;;9.13;4.13;;;;;;;28.23;35.71;100423.41;5064694;28;20045;-62
2022/10/30 08:07:52;;;;;;;6.22;3.60;;;;;;;29.17;34.26;100416.59;5066327;28;20055;-62
2022/10/30 08:10:20;;;;;;;12.85;4.40;;;;;;;29.72;31.96;100424.34;5070322;28;20060;-62
2022/10/30 08:12:47;;;;;;;10.75;4.85;;;;;;;30.50;31.45;100420.66;5067057;28;20063;-62
2022/10/30 08:15:15;;;;;;;10.52;4.25;;;;;;;31.17;30.37;100418.34;5071650;28;20056;-62
2022/10/30 08:17:43;;;;;;;8.23;4.40;;;;;;;31.21;30.13;100416.16;5071005;28;20551;-62
2022/10/30 08:20:12;;;;;;;10.48;5.03;;;;;;;30.59;30.28;100419.22;5053779;28;20048;-62
2022/10/30 08:22:50;;;;;;;8.38;4.65;;;;;;;30.35;30.23;100423.13;5067387;28;20056;-63
2022/10/30 08:25:19;;;;;;;;;;;;;;;30.24;30.84;100421.78;5071783;28;20049;-62
2022/10/30 08:27:56;;;;;;;10.35;4.57;;;;;;;30.93;29.58;100419.47;5072291;28;19927;-62
2022/10/30 08:30:25;;;;;;;8.20;4.53;;;;;;;30.86;30.39;100424.59;5035762;28;20061;-62
2022/10/30 08:32:56;;;;;;;7.13;3.97;;;;;;;31.40;29.07;100420.88;5041608;28;20060;-62
2022/10/30 08:35:24;;;;;;;8.00;4.00;;;;;;;32.50;27.81;100424.16;5051627;28;20063;-63
2022/10/30 08:37:55;;;;;;;9.68;3.78;;;;;;;33.14;27.08;100414.41;5047616;28;20060;-62
2022/10/30 08:40:22;;;;;;;10.70;4.30;;;;;;;33.65;26.00;100407.44;5030823;28;20593;-63
2022/10/30 08:42:53;;;;;;;7.53;4.07;;;;;;;34.25;25.60;100401.16;5047839;28;20048;-62
2022/10/30 08:45:24;;;;;;;6.88;4.43;;;;;;;34.53;25.74;100412.72;5050090;28;20055;-63
2022/10/30 08:47:57;;;;;;;8.50;4.25;;;;;;;35.04;25.18;100400.41;5036993;28;20060;-63
2022/10/30 08:50:25;;;;;;;8.80;3.92;;;;;;;35.61;23.99;100399.72;5041644;28;20061;-63
2022/10/30 08:52:53;;;;;;;8.77;4.47;;;;;;;35.98;23.86;100403.25;5051402;28;20053;-63
2022/10/30 08:55:20;;;;;;;7.68;4.28;;;;;;;36.29;22.99;100399.19;5042195;28;20068;-63
2022/10/30 08:57:51;;;;;;;7.03;4.47;;;;;;;36.41;23.71;100393.59;5038035;28;20519;-62
2022/10/30 09:00:18;;;;;;;11.32;3.92;;;;;;;36.90;22.19;100392.19;5038389;28;20084;-63
2022/10/30 09:02:45;;;;;;;8.38;4.43;;;;;;;37.30;22.19;100387.88;5049612;28;20504;-63
2022/10/30 09:05:14;;;;;;;8.20;4.43;;;;;;;37.83;21.61;100392.66;5034686;28;20060;-63
2022/10/30 09:07:42;;;;;;;7.35;4.18;;;;;;;38.31;21.06;100392.25;5041737;28;20417;-63
2022/10/30 09:10:10;;;;;;;7.45;3.88;;;;;;;38.78;20.42;100387.22;5045258;28;20050;-63
2022/10/30 09:12:38;;;;;;;8.15;3.72;;;;;;;39.27;19.92;100386.59;5031587;28;20056;-63
2022/10/30 09:15:07;;;;;;;9.32;4.13;;;;;;;39.81;19.09;100383.81;5040714;28;20125;-62
2022/10/30 09:17:34;;;;;;;8.27;4.38;;;;;;;40.16;19.19;100382.69;5049564;28;20053;-63
2022/10/30 09:20:01;;;;;;;9.33;4.03;;;;;;;40.41;19.03;100378.03;5050092;28;20055;-63
2022/10/30 09:22:28;;;;;;;12.27;4.67;;;;;;;40.73;18.61;100372.81;5047935;28;20461;-63
2022/10/30 09:24:56;;;;;;;11.33;5.60;;;;;;;41.15;18.55;100376.84;5050220;28;20049;-63
2022/10/30 09:27:26;;;;;;;7.78;5.57;;;;;;;41.30;18.56;100369.91;5043597;28;20050;-61
2022/10/30 09:29:54;;;;;;;14.13;5.85;;;;;;;41.28;18.50;100361.66;5052029;28;20394;-61
2022/10/30 09:32:22;;;;;;;8.00;5.07;;;;;;;40.91;18.79;100359.81;5059050;28;20064;-61
2022/10/30 09:34:49;;;;;;;9.15;4.57;;;;;;;40.63;18.76;100358.97;5069918;28;20405;-61
2022/10/30 09:37:17;;;;;;;9.63;4.90;;;;;;;40.47;19.49;100358.41;5068553;28;20060;-61
2022/10/30 09:39:45;;;;;;;6.95;4.47;;;;;;;40.50;19.38;100365.31;5070085;28;20481;-61
2022/10/30 09:42:36;;;;;;;7.23;4.40;;;;;;;40.34;19.71;100366.84;5068478;28;20045;-61
2022/10/30 09:45:24;;;;;;;9.38;4.60;;;;;;;39.99;20.32;100356.38;5065074;28;20378;-60
2022/10/30 09:48:01;;;;;;;9.80;4.60;;;;;;;40.26;20.34;100366.53;5067542;28;20058;-61
2022/10/30 09:50:31;;;;;;;9.45;4.45;;;;;;;39.80;20.78;100367.66;5061208;28;20490;-60
2022/10/30 09:53:07;;;;;;;8.52;4.65;;;;;;;39.68;21.16;100374.75;5068636;28;20060;-60
2022/10/30 09:55:41;;;;;;;7.18;3.58;;;;;;;39.97;20.69;100368.56;5070736;28;20049;-61
2022/10/30 09:58:24;;;;;;;6.00;3.83;;;;;;;39.89;20.88;100367.44;5057075;28;20060;-62
2022/10/30 10:00:56;;;;;;;8.10;4.15;;;;;;;39.57;21.23;100364.59;5051486;28;20064;-62
2022/10/30 10:03:38;;;;;;;8.25;4.20;;;;;;;39.37;21.87;100358.88;5051080;28;20381;-61
2022/10/30 10:06:16;;;;;;;7.80;3.88;;;;;;;39.85;21.09;100355.22;5051023;28;20063;-61
2022/10/30 10:08:49;;;;;;;7.45;3.75;;;;;;;39.85;21.29;100349.41;5051004;28;20060;-62
2022/10/30 10:11:21;;;;;;;9.75;4.70;;;;;;;39.97;21.50;100344.44;5063388;28;20060;-62
2022/10/30 10:13:53;;;;;;;7.75;4.47;;;;;;;40.17;21.27;100346.34;5066523;28;20052;-61
2022/10/30 10:16:25;;;;;;;7.25;3.60;;;;;;;40.31;20.97;100339.50;5068919;28;20473;-62
2022/10/30 10:18:58;;;;;;;7.25;4.05;;;;;;;40.28;20.93;100333.91;5074195;28;20057;-62
2022/10/30 10:21:27;;;;;;;11.75;4.20;;;;;;;40.71;20.33;100339.59;5062634;28;20056;-62
2022/10/30 10:23:57;;;;;;;7.82;4.05;;;;;;;40.90;20.49;100334.06;5054753;28;20056;-62
2022/10/30 10:26:30;;;;;;;7.30;4.20;;;;;;;40.62;21.26;100328.97;5056162;28;20049;-61
2022/10/30 10:29:16;;;;;;;8.30;3.92;;;;;;;40.60;20.79;100330.81;5067690;28;20063;-61
2022/10/30 10:31:50;;;;;;;9.27;4.00;;;;;;;41.00;20.64;100323.69;5059394;28;20056;-61
2022/10/30 10:34:40;;;;;;;10.32;4.50;;;;;;;41.23;20.38;100329.56;5073718;28;20057;-62
2022/10/30 10:37:20;;;;;;;9.07;6.15;;;;;;;41.44;19.97;100327.91;5053940;28;20053;-61
2022/10/30 10:40:03;;;;;;;8.32;4.22;;;;;;;41.58;20.05;100321.00;5056224;28;20063;-60
2022/10/30 10:42:39;;;;;;;8.52;4.20;;;;;;;41.87;19.37;100320.88;5054580;28;20060;-62
2022/10/30 10:45:20;;;;;;;8.48;4.38;;;;;;;41.85;19.26;100323.53;5067004;28;20052;-61
2022/10/30 10:48:25;;;;;;;9.38;4.03;;;;;;;41.41;19.56;100328.97;5073734;28;20056;-62
2022/10/30 10:50:58;;;;;;;8.07;3.97;;;;;;;41.60;19.60;100322.56;5051563;28;20052;-62
2022/10/30 10:53:30;;;;;;;6.50;3.40;;;;;;;41.79;18.91;100308.94;5056714;28;20045;-61
2022/10/30 10:56:00;;;;;;;7.82;3.90;;;;;;;41.94;18.82;100314.47;5069609;28;20059;-62
2022/10/30 10:58:33;;;;;;;11.18;3.88;;;;;;;41.53;18.80;100318.03;5060309;28;20053;-61
2022/10/30 11:01:02;;;;;;;8.63;4.00;;;;;;;41.62;18.82;100323.63;5055894;28;20124;-60
2022/10/30 11:03:44;;;;;;;5.95;3.75;;;;;;;42.01;18.18;100319.78;5058855;28;20053;-61
2022/10/30 11:06:20;;;;;;;8.20;4.03;;;;;;;41.94;18.14;100318.19;5066042;28;20056;-60
2022/10/30 11:08:49;;;;;;;6.43;3.63;;;;;;;42.06;18.30;100307.22;5059440;28;20048;-61
2022/10/30 11:11:16;;;;;;;8.00;3.83;;;;;;;42.34;18.15;100303.38;5054817;28;20669;-61
2022/10/30 11:13:44;;;;;;;6.45;3.80;;;;;;;41.96;18.02;100303.81;5061735;28;20060;-61
2022/10/30 11:16:21;;;;;;;;;;;;;;;42.02;18.20;100297.16;5053100;28;20083;-61
2022/10/30 11:18:54;;;;;;;7.72;3.70;;;;;;;42.47;17.69;100294.78;5054086;28;19920;-61
2022/10/30 11:21:24;;;;;;;9.10;3.63;;;;;;;42.37;17.82;100297.19;5053563;28;20048;-61
2022/10/30 11:23:52;;;;;;;5.57;3.72;;;;;;;42.34;17.90;100291.66;5053558;28;20052;-61
2022/10/30 11:26:32;;;;;;;7.28;4.28;;;;;;;42.08;17.95;100297.91;5056820;28;20492;-61
2022/10/30 11:29:04;;;;;;;6.82;3.80;;;;;;;41.85;18.34;100291.34;5072889;28;20053;-61
2022/10/30 11:31:36;;;;;;;8.57;4.18;;;;;;;41.80;18.12;100290.06;5073540;28;20053;-61
2022/10/30 11:34:30;;;;;;;9.75;4.03;;;;;;;41.46;18.63;100293.09;5072940;28;20056;-61
2022/10/30 11:36:57;;;;;;;7.45;3.67;;;;;;;41.24;18.73;100293.91;5073358;28;20052;-61
2022/10/30 11:39:29;;;;;;;5.47;3.63;;;;;;;41.45;18.50;100299.44;5072912;28;20408;-61
2022/10/30 11:42:01;;;;;;;7.95;4.00;;;;;;;41.33;18.46;100287.81;5056224;28;20060;-61
2022/10/30 11:44:32;;;;;;;7.18;4.03;;;;;;;41.05;18.94;100284.91;5053001;28;20048;-61
2022/10/30 11:47:01;;;;;;;6.25;3.67;;;;;;;40.95;19.32;100280.66;5052580;28;20053;-61
2022/10/30 11:49:37;;;;;;;6.05;3.40;;;;;;;40.38;18.49;100280.63;5059678;28;20049;-61
2022/10/30 11:52:06;;;;;;;5.50;3.70;;;;;;;40.14;18.81;100272.31;5072095;28;20060;-61
2022/10/30 11:54:37;;;;;;;8.55;4.18;;;;;;;40.15;19.78;100264.38;5070833;28;20051;-61
2022/10/30 11:57:17;;;;;;;8.05;4.38;;;;;;;39.92;18.54;100269.34;5052596;28;20057;-60
2022/10/30 11:59:47;;;;;;;7.60;4.03;;;;;;;39.88;18.36;100268.81;5052548;28;20063;-61
2022/10/30 12:02:26;;;;;;;8.80;3.85;;;;;;;37.78;19.54;100280.00;5052511;28;20064;-61
2022/10/30 12:04:55;;;;;;;6.55;3.58;;;;;;;37.26;20.20;100279.81;5052068;28;20057;-61
2022/10/30 12:07:29;;;;;;;10.68;4.05;;;;;;;36.63;21.24;100278.00;5051974;28;20446;-60
2022/10/30 12:09:58;;;;;;;9.73;4.40;;;;;;;35.67;21.84;100272.41;5052586;28;20497;-61
2022/10/30 12:12:27;;;;;;;;;;;;;;;35.88;22.40;100279.94;5052888;28;20053;-60